createdAt,value
2022-11-29T00:04:40.739Z,213
2022-11-29T00:24:40.805Z,213
2022-11-29T00:44:40.827Z,212
2022-11-29T01:04:40.821Z,210
2022-11-29T01:24:40.750Z,216
2022-11-29T01:44:40.797Z,220
2022-11-29T02:04:40.793Z,217
2022-11-29T02:24:40.807Z,214
2022-11-29T02:44:40.836Z,222
2022-11-29T03:04:40.880Z,221
2022-11-29T03:24:40.900Z,223
2022-11-29T03:44:40.928Z,222
2022-11-29T04:04:40.956Z,224
2022-11-29T04:24:40.982Z,224
2022-11-29T04:44:41.015Z,224
2022-11-29T05:04:41.013Z,228
2022-11-29T05:24:41.089Z,223
2022-11-29T05:44:41.082Z,221
2022-11-29T06:04:41.115Z,223
2022-11-29T06:24:41.194Z,222
2022-11-29T06:44:41.157Z,225
2022-11-29T07:04:45.581Z,222
2022-11-29T07:24:41.209Z,223
2022-11-29T07:44:41.232Z,224
2022-11-29T08:04:41.260Z,225
2022-11-29T08:24:41.267Z,223
2022-11-29T08:44:41.302Z,227
2022-11-29T09:04:41.362Z,223
2022-11-29T09:24:41.359Z,221
2022-11-29T09:44:41.376Z,221
2022-11-29T10:04:41.400Z,225
2022-11-29T10:24:41.410Z,222
2022-11-29T10:44:41.473Z,219
2022-11-29T11:24:41.507Z,220
2022-11-29T11:44:47.892Z,221
2022-11-29T12:04:41.593Z,219
2022-11-29T12:24:41.561Z,218
2022-11-29T12:44:41.584Z,214
2022-11-29T13:04:41.631Z,220
2022-11-29T13:24:42.856Z,217
2022-11-29T14:04:41.696Z,217
2022-11-29T14:24:41.704Z,212
2022-11-29T14:44:41.803Z,218
2022-11-29T15:04:41.779Z,216
2022-11-29T15:24:41.840Z,217
2022-11-29T15:44:41.299Z,211
2022-11-29T16:04:46.429Z,217
2022-11-29T16:24:41.855Z,212
2022-11-29T16:44:41.892Z,217
2022-11-29T17:04:41.909Z,210
2022-11-29T17:24:46.337Z,213
2022-11-29T17:44:41.987Z,213
2022-11-29T18:04:41.970Z,213
2022-11-29T18:24:42.005Z,208
2022-11-29T18:44:42.047Z,208
2022-11-29T19:04:42.071Z,210
2022-11-29T19:24:42.079Z,211
2022-11-29T19:45:08.933Z,211
2022-11-29T20:04:42.159Z,210
2022-11-29T20:24:45.474Z,206
2022-11-29T20:44:42.205Z,205
2022-11-29T21:04:42.212Z,212
2022-11-29T21:24:42.242Z,210
2022-11-29T21:44:42.265Z,210
2022-11-29T22:04:42.305Z,200
2022-11-29T22:24:42.340Z,210
2022-11-29T22:44:42.370Z,210
2022-11-29T23:04:42.397Z,209
2022-11-29T23:24:42.421Z,211
2022-11-29T23:44:42.425Z,209
